createdAt,value
2023-03-17T00:01:25.678Z,4.00
2023-03-17T00:03:53.752Z,3.90
2023-03-17T00:06:27.845Z,4.00
2023-03-17T00:08:56.669Z,3.70
2023-03-17T00:11:25.380Z,4.07
2023-03-17T00:13:53.853Z,3.90
2023-03-17T00:16:25.543Z,4.00
2023-03-17T00:18:54.864Z,4.03
2023-03-17T00:21:28.847Z,4.10
2023-03-17T00:23:57.223Z,3.93
2023-03-17T00:26:25.947Z,4.00
2023-03-17T00:28:55.500Z,3.77
2023-03-17T00:31:27.250Z,3.67
2023-03-17T00:33:55.851Z,3.93
2023-03-17T00:36:25.687Z,4.10
2023-03-17T00:38:53.690Z,3.87
2023-03-17T00:41:22.391Z,3.37
2023-03-17T00:43:50.682Z,3.80
2023-03-17T00:46:23.436Z,3.70
2023-03-17T00:48:53.002Z,3.90
2023-03-17T00:51:21.125Z,4.07
2023-03-17T00:53:49.614Z,3.90
2023-03-17T00:56:20.668Z,3.90
2023-03-17T00:58:49.466Z,4.07
2023-03-17T01:01:18.633Z,4.57
2023-03-17T01:03:46.886Z,3.87
2023-03-17T01:06:17.667Z,4.13
2023-03-17T01:08:46.553Z,4.00
2023-03-17T01:11:18.592Z,4.10
2023-03-17T01:13:47.610Z,3.53
2023-03-17T01:16:15.996Z,3.83
2023-03-17T01:18:44.069Z,4.47
2023-03-17T01:21:12.688Z,3.30
2023-03-17T01:23:42.199Z,4.00
2023-03-17T01:26:10.248Z,3.87
2023-03-17T01:28:38.301Z,4.40
2023-03-17T01:31:06.472Z,3.83
2023-03-17T01:33:35.140Z,4.47
2023-03-17T01:36:03.270Z,3.67
2023-03-17T01:38:31.321Z,3.73
2023-03-17T01:41:03.355Z,3.70
2023-03-17T01:43:32.671Z,4.07
2023-03-17T01:46:29.614Z,3.80
2023-03-17T01:49:11.018Z,4.37
2023-03-17T01:51:47.225Z,3.40
2023-03-17T01:54:18.310Z,4.33
2023-03-17T01:56:52.014Z,3.60
2023-03-17T01:59:23.747Z,3.93
2023-03-17T02:01:56.763Z,3.63
2023-03-17T02:04:25.820Z,4.07
2023-03-17T02:06:58.337Z,4.03
2023-03-17T02:09:27.823Z,3.30
2023-03-17T02:11:59.802Z,4.23
2023-03-17T02:14:28.083Z,3.63
2023-03-17T02:16:56.307Z,3.90
2023-03-17T02:19:24.406Z,3.83
2023-03-17T02:21:55.021Z,3.57
2023-03-17T02:24:30.856Z,3.60
2023-03-17T02:27:03.954Z,3.47
2023-03-17T02:29:35.124Z,3.37
2023-03-17T02:32:03.190Z,4.30
2023-03-17T02:34:31.480Z,3.37
2023-03-17T02:37:01.139Z,3.90
2023-03-17T02:39:29.100Z,3.10
2023-03-17T02:41:57.291Z,3.20
2023-03-17T02:44:25.533Z,3.60
2023-03-17T02:46:53.583Z,3.50
2023-03-17T02:49:22.138Z,3.23
2023-03-17T02:51:50.425Z,3.00
2023-03-17T02:54:19.721Z,3.00
2023-03-17T02:56:47.669Z,3.27
2023-03-17T02:59:16.213Z,3.30
2023-03-17T03:01:44.238Z,2.80
2023-03-17T03:04:13.381Z,3.13
2023-03-17T03:06:42.554Z,2.90
2023-03-17T03:09:11.697Z,3.40
2023-03-17T03:11:41.645Z,2.80
2023-03-17T03:14:10.346Z,2.70
2023-03-17T03:16:38.395Z,2.97
2023-03-17T03:19:07.380Z,3.30
2023-03-17T03:21:36.658Z,3.30
2023-03-17T03:24:05.317Z,2.70
2023-03-17T03:26:33.383Z,3.10
2023-03-17T03:29:02.776Z,3.10
2023-03-17T03:31:30.928Z,2.93
2023-03-17T03:33:59.093Z,3.27
2023-03-17T03:36:27.467Z,3.27
2023-03-17T03:38:55.467Z,2.97
2023-03-17T03:41:23.514Z,3.13
2023-03-17T03:43:51.479Z,3.50
2023-03-17T03:46:20.839Z,2.90
2023-03-17T03:48:48.793Z,3.07
2023-03-17T03:51:16.884Z,3.20
2023-03-17T03:53:44.908Z,3.03
2023-03-17T03:56:12.895Z,2.83
2023-03-17T03:58:41.839Z,3.03
2023-03-17T04:01:10.738Z,2.63
2023-03-17T04:03:40.286Z,2.80
2023-03-17T04:06:08.446Z,2.93
2023-03-17T04:08:36.568Z,3.00
2023-03-17T04:11:04.576Z,2.67
2023-03-17T04:13:32.516Z,3.07
2023-03-17T04:16:01.381Z,3.03
2023-03-17T04:18:29.406Z,2.93
2023-03-17T04:20:58.814Z,3.03
2023-03-17T04:23:27.715Z,3.30
2023-03-17T04:25:55.802Z,3.00
2023-03-17T04:28:23.746Z,2.67
2023-03-17T04:30:51.714Z,2.20
2023-03-17T04:33:20.297Z,2.87
2023-03-17T04:35:48.344Z,2.87
2023-03-17T04:38:17.714Z,3.13
2023-03-17T04:40:46.250Z,3.20
2023-03-17T04:43:14.546Z,2.90
2023-03-17T04:45:45.728Z,3.40
2023-03-17T04:48:13.689Z,2.83
2023-03-17T04:50:42.367Z,2.93
2023-03-17T04:53:10.330Z,2.33
2023-03-17T04:55:39.652Z,3.00
2023-03-17T04:58:08.350Z,2.70
2023-03-17T05:00:38.851Z,2.73
2023-03-17T05:03:20.185Z,2.93
2023-03-17T05:05:54.250Z,3.40
2023-03-17T05:08:22.202Z,2.63
2023-03-17T05:10:51.780Z,2.97
2023-03-17T05:13:20.032Z,3.10
2023-03-17T05:15:48.723Z,2.67
2023-03-17T05:18:17.020Z,2.97
2023-03-17T05:20:45.526Z,3.23
2023-03-17T05:23:13.522Z,2.97
2023-03-17T05:25:41.704Z,3.47
2023-03-17T05:28:11.480Z,2.80
2023-03-17T05:30:40.518Z,3.40
2023-03-17T05:33:08.515Z,2.57
2023-03-17T05:35:36.732Z,3.20
2023-03-17T05:38:04.739Z,3.20
2023-03-17T05:40:32.997Z,3.20
2023-03-17T05:43:01.105Z,3.20
2023-03-17T05:45:30.702Z,2.90
2023-03-17T05:47:58.760Z,3.20
2023-03-17T05:50:27.857Z,2.87
2023-03-17T05:52:55.970Z,2.90
2023-03-17T05:55:24.122Z,3.33
2023-03-17T05:57:52.427Z,2.90
2023-03-17T06:00:21.457Z,2.90
2023-03-17T06:02:50.794Z,3.10
2023-03-17T06:05:19.082Z,3.07
2023-03-17T06:07:54.647Z,2.90
2023-03-17T06:10:24.205Z,2.80
2023-03-17T06:12:52.226Z,3.10
2023-03-17T06:15:20.712Z,3.33
2023-03-17T06:17:50.077Z,3.00
2023-03-17T06:20:18.489Z,3.20
2023-03-17T06:23:02.762Z,3.30
2023-03-17T06:25:28.274Z,2.93
2023-03-17T06:27:58.702Z,3.00
2023-03-17T06:30:27.067Z,3.00
2023-03-17T06:32:56.575Z,3.10
2023-03-17T06:35:24.675Z,3.03
2023-03-17T06:37:52.789Z,3.23
2023-03-17T06:40:21.048Z,3.17
2023-03-17T06:42:49.172Z,3.10
2023-03-17T06:45:17.385Z,3.30
2023-03-17T06:47:45.376Z,3.43
2023-03-17T06:50:14.885Z,3.17
2023-03-17T06:52:43.710Z,3.00
2023-03-17T06:55:12.977Z,3.40
2023-03-17T06:57:40.978Z,2.87
2023-03-17T07:00:12.595Z,3.20
2023-03-17T07:02:40.598Z,2.93
2023-03-17T07:05:09.233Z,2.77
2023-03-17T07:07:38.765Z,3.27
2023-03-17T07:10:10.317Z,2.90
2023-03-17T07:12:38.671Z,3.07
2023-03-17T07:15:07.606Z,3.20
2023-03-17T07:17:37.492Z,3.30
2023-03-17T07:20:06.439Z,3.17
2023-03-17T07:22:34.686Z,2.80
2023-03-17T07:25:04.306Z,2.93
2023-03-17T07:27:32.336Z,2.73
2023-03-17T07:30:03.724Z,2.70
2023-03-17T07:32:31.825Z,2.40
2023-03-17T07:35:00.013Z,2.67
2023-03-17T07:37:29.423Z,2.27
2023-03-17T07:39:57.451Z,2.80
2023-03-17T07:42:28.942Z,2.90
2023-03-17T07:44:57.066Z,2.70
2023-03-17T07:47:25.080Z,2.53
2023-03-17T07:49:53.363Z,3.60
2023-03-17T07:52:21.465Z,2.33
2023-03-17T07:54:51.579Z,2.57
2023-03-17T07:57:19.770Z,2.93
2023-03-17T07:59:49.512Z,3.17
2023-03-17T08:02:19.573Z,2.60
2023-03-17T08:04:47.837Z,3.07
2023-03-17T08:07:15.845Z,2.77
2023-03-17T08:09:44.084Z,2.60
2023-03-17T08:12:12.455Z,2.30
2023-03-17T08:14:41.484Z,2.77
2023-03-17T08:17:11.382Z,3.07
2023-03-17T08:19:39.506Z,2.53
2023-03-17T08:22:07.821Z,2.70
2023-03-17T08:24:37.015Z,3.23
2023-03-17T08:27:05.240Z,2.43
2023-03-17T08:29:33.552Z,2.30
2023-03-17T08:32:01.540Z,2.27
2023-03-17T08:34:31.048Z,4.90
2023-03-17T08:36:59.172Z,8.97
2023-03-17T08:39:27.365Z,9.73
2023-03-17T08:41:55.698Z,24.30
2023-03-17T08:44:23.727Z,9.13
2023-03-17T08:46:52.732Z,3.63
2023-03-17T08:49:21.625Z,3.77
2023-03-17T08:51:51.056Z,2.90
2023-03-17T08:54:19.081Z,2.40
2023-03-17T08:56:47.070Z,2.23
2023-03-17T08:59:16.915Z,2.17
2023-03-17T09:01:45.641Z,2.97
2023-03-17T09:04:13.773Z,2.50
2023-03-17T09:06:51.845Z,2.17
2023-03-17T09:09:32.197Z,2.27
2023-03-17T09:12:00.326Z,2.10
2023-03-17T09:14:30.559Z,2.20
2023-03-17T09:17:01.419Z,2.17
2023-03-17T09:19:29.465Z,2.17
2023-03-17T09:21:57.890Z,2.63
2023-03-17T09:24:26.126Z,2.20
2023-03-17T09:26:55.492Z,2.07
2023-03-17T09:29:23.464Z,1.90
2023-03-17T09:31:51.488Z,2.00
2023-03-17T09:34:19.429Z,2.20
2023-03-17T09:36:47.398Z,2.17
2023-03-17T09:39:16.063Z,1.73
2023-03-17T09:41:59.429Z,1.83
2023-03-17T09:44:38.975Z,2.30
2023-03-17T09:47:20.166Z,1.93
2023-03-17T09:49:51.355Z,2.27
2023-03-17T09:52:27.657Z,1.70
2023-03-17T09:54:55.985Z,1.80
2023-03-17T09:57:28.253Z,2.00
2023-03-17T10:00:01.842Z,1.73
2023-03-17T10:02:31.840Z,2.07
2023-03-17T10:05:00.972Z,1.90
2023-03-17T10:07:40.591Z,1.90
2023-03-17T10:10:16.974Z,1.97
2023-03-17T10:12:52.967Z,2.23
2023-03-17T10:15:28.377Z,2.10
2023-03-17T10:17:56.677Z,2.03
2023-03-17T10:20:28.632Z,1.83
2023-03-17T10:22:59.075Z,2.00
2023-03-17T10:25:30.753Z,2.00
2023-03-17T10:28:03.465Z,2.00
2023-03-17T10:30:34.423Z,2.20
2023-03-17T10:33:07.386Z,2.00
2023-03-17T10:35:37.484Z,2.20
2023-03-17T10:38:16.949Z,2.33
2023-03-17T10:40:48.395Z,1.77
2023-03-17T10:43:22.558Z,1.77
2023-03-17T10:46:00.780Z,1.80
2023-03-17T10:48:31.167Z,1.70
2023-03-17T10:51:00.147Z,2.10
2023-03-17T10:53:29.094Z,1.90
2023-03-17T10:56:01.026Z,2.07
2023-03-17T10:58:39.038Z,1.90
2023-03-17T11:01:10.019Z,1.80
2023-03-17T11:03:41.763Z,2.10
2023-03-17T11:06:11.759Z,2.33
2023-03-17T11:08:42.895Z,1.90
2023-03-17T11:11:22.975Z,1.80
2023-03-17T11:13:54.139Z,1.77
2023-03-17T11:16:24.761Z,2.10
2023-03-17T11:18:56.545Z,1.73
2023-03-17T11:21:30.081Z,1.57
2023-03-17T11:24:04.579Z,1.70
2023-03-17T11:26:56.380Z,1.67
2023-03-17T11:29:39.703Z,1.40
2023-03-17T11:32:23.444Z,1.43
2023-03-17T11:35:06.336Z,1.60
2023-03-17T11:37:49.158Z,1.67
2023-03-17T11:40:22.780Z,1.53
2023-03-17T11:42:58.728Z,1.70
2023-03-17T11:45:33.154Z,1.80
2023-03-17T11:48:20.222Z,1.57
2023-03-17T11:50:56.500Z,1.73
2023-03-17T11:53:43.140Z,1.77
2023-03-17T11:56:18.367Z,1.63
2023-03-17T11:58:49.578Z,2.13
2023-03-17T12:01:27.393Z,1.60
2023-03-17T12:04:04.681Z,1.60
2023-03-17T12:06:37.715Z,1.53
2023-03-17T12:09:17.382Z,1.63
2023-03-17T12:11:47.644Z,1.70
2023-03-17T12:14:26.489Z,1.73
2023-03-17T12:17:01.340Z,1.90
2023-03-17T12:19:37.467Z,1.63
2023-03-17T12:22:09.364Z,1.50
2023-03-17T12:24:41.774Z,1.57
2023-03-17T12:27:15.806Z,1.80
2023-03-17T12:29:49.874Z,1.50
2023-03-17T12:32:22.714Z,1.50
2023-03-17T12:34:55.483Z,1.60
2023-03-17T12:37:27.679Z,1.60
2023-03-17T12:40:00.960Z,1.33
2023-03-17T12:42:47.062Z,1.63
2023-03-17T12:45:36.436Z,1.50
2023-03-17T12:48:32.783Z,4.70
2023-03-17T12:51:29.769Z,9.60
2023-03-17T12:54:00.161Z,10.30
2023-03-17T12:56:31.763Z,3.73
2023-03-17T12:59:06.068Z,1.77
2023-03-17T13:01:36.055Z,2.10
2023-03-17T13:04:19.163Z,1.67
2023-03-17T13:06:54.684Z,1.83
2023-03-17T13:09:43.089Z,1.90
2023-03-17T13:12:54.708Z,1.60
2023-03-17T13:15:30.723Z,1.77
2023-03-17T13:18:28.301Z,1.63
2023-03-17T13:21:14.786Z,1.70
2023-03-17T13:23:45.024Z,1.43
2023-03-17T13:26:14.714Z,1.20
2023-03-17T13:28:47.618Z,1.60
2023-03-17T13:31:33.326Z,1.50
2023-03-17T13:34:12.804Z,1.63
2023-03-17T13:36:53.066Z,1.60
2023-03-17T13:39:52.797Z,1.67
2023-03-17T13:42:42.505Z,1.53
2023-03-17T13:45:19.676Z,2.10
2023-03-17T13:47:47.833Z,1.80
2023-03-17T13:50:22.098Z,2.00
2023-03-17T13:52:58.492Z,1.70
2023-03-17T13:55:37.874Z,1.67
2023-03-17T13:58:33.169Z,1.70
2023-03-17T14:01:06.725Z,1.60
2023-03-17T14:03:48.807Z,1.53
2023-03-17T14:06:18.794Z,1.60
2023-03-17T14:08:50.291Z,2.13
2023-03-17T14:11:24.007Z,1.90
2023-03-17T14:14:00.867Z,1.70
2023-03-17T14:16:33.066Z,2.10
2023-03-17T14:19:10.946Z,1.80
2023-03-17T14:21:38.911Z,2.20
2023-03-17T14:24:20.636Z,1.90
2023-03-17T14:26:48.848Z,1.80
2023-03-17T14:29:18.566Z,2.33
2023-03-17T14:31:49.805Z,2.10
2023-03-17T14:34:21.965Z,1.80
2023-03-17T14:36:52.016Z,2.07
2023-03-17T14:39:26.920Z,2.30
2023-03-17T14:42:03.200Z,2.10
2023-03-17T14:44:38.087Z,2.33
2023-03-17T14:47:13.575Z,2.10
2023-03-17T14:49:41.728Z,2.03
2023-03-17T14:52:20.056Z,2.10
2023-03-17T14:54:52.420Z,1.83
2023-03-17T14:57:23.990Z,1.80
2023-03-17T14:59:59.683Z,1.80
2023-03-17T15:02:33.218Z,1.90
2023-03-17T15:05:06.636Z,1.63
2023-03-17T15:07:39.661Z,2.10
2023-03-17T15:10:16.420Z,1.83
2023-03-17T15:12:46.215Z,2.10
2023-03-17T15:15:23.381Z,1.57
2023-03-17T15:17:53.438Z,2.10
2023-03-17T15:20:21.820Z,1.70
2023-03-17T15:22:57.354Z,1.90
2023-03-17T15:25:33.970Z,1.73
2023-03-17T15:28:02.716Z,2.20
2023-03-17T15:30:44.337Z,2.50
2023-03-17T15:33:20.481Z,2.20
2023-03-17T15:35:48.499Z,2.10
2023-03-17T15:38:16.698Z,3.03
2023-03-17T15:40:46.044Z,2.20
2023-03-17T15:43:16.794Z,2.00
2023-03-17T15:45:46.230Z,2.40
2023-03-17T15:48:21.598Z,2.20
2023-03-17T15:50:50.557Z,2.30
2023-03-17T15:53:18.960Z,2.40
2023-03-17T15:55:49.004Z,2.17
2023-03-17T15:58:17.208Z,2.50
2023-03-17T16:00:48.302Z,2.60
2023-03-17T16:03:24.707Z,2.40
2023-03-17T16:05:52.741Z,3.00
2023-03-17T16:08:21.798Z,2.70
2023-03-17T16:10:51.966Z,2.50
2023-03-17T16:13:19.961Z,2.40
2023-03-17T16:15:53.665Z,2.33
2023-03-17T16:18:29.050Z,2.30
2023-03-17T16:20:57.188Z,2.87
2023-03-17T16:23:28.565Z,3.07
2023-03-17T16:26:11.842Z,2.53
2023-03-17T16:28:44.506Z,3.07
2023-03-17T16:31:23.258Z,3.03
2023-03-17T16:33:52.734Z,2.93
2023-03-17T16:36:22.281Z,2.60
2023-03-17T16:38:50.939Z,2.83
2023-03-17T16:41:23.386Z,3.00
2023-03-17T16:43:55.185Z,2.93
2023-03-17T16:46:23.621Z,3.20
2023-03-17T16:48:52.004Z,2.97
2023-03-17T16:51:20.594Z,3.50
2023-03-17T16:53:48.634Z,3.10
2023-03-17T16:56:18.799Z,3.27
2023-03-17T16:58:49.036Z,2.70
2023-03-17T17:01:20.532Z,3.13
2023-03-17T17:03:48.811Z,3.10
2023-03-17T17:06:17.493Z,3.30
2023-03-17T17:08:46.639Z,3.00
2023-03-17T17:11:15.966Z,3.17
2023-03-17T17:13:45.396Z,2.87
2023-03-17T17:16:21.446Z,2.90
2023-03-17T17:18:49.558Z,4.00
2023-03-17T17:21:17.906Z,3.07
2023-03-17T17:23:46.059Z,5.60
2023-03-17T17:26:14.206Z,6.17
2023-03-17T17:28:42.734Z,8.43
2023-03-17T17:31:11.305Z,10.80
2023-03-17T17:33:41.053Z,3.80
2023-03-17T17:36:14.968Z,4.07
2023-03-17T17:38:43.341Z,5.60
2023-03-17T17:41:12.681Z,3.93
2023-03-17T17:43:41.390Z,4.37
2023-03-17T17:46:13.520Z,4.20
2023-03-17T17:48:42.973Z,3.67
2023-03-17T17:51:10.932Z,3.37
2023-03-17T17:53:39.309Z,3.33
2023-03-17T17:56:08.288Z,3.20
2023-03-17T17:58:36.218Z,3.50
2023-03-17T18:01:05.518Z,3.00
2023-03-17T18:03:33.872Z,3.60
2023-03-17T18:06:03.370Z,3.50
2023-03-17T18:08:31.339Z,5.23
2023-03-17T18:10:59.367Z,15.73
2023-03-17T18:13:27.405Z,6.83
2023-03-17T18:15:55.363Z,4.90
2023-03-17T18:18:23.651Z,4.87
2023-03-17T18:20:52.538Z,4.50
2023-03-17T18:23:22.936Z,3.57
2023-03-17T18:25:52.014Z,3.77
2023-03-17T18:28:20.016Z,4.10
2023-03-17T18:30:48.046Z,3.57
2023-03-17T18:33:19.650Z,4.20
2023-03-17T18:35:49.679Z,3.47
2023-03-17T18:38:17.912Z,3.80
2023-03-17T18:40:47.336Z,4.30
2023-03-17T18:43:15.523Z,3.00
2023-03-17T18:45:43.572Z,3.30
2023-03-17T18:48:11.614Z,3.40
2023-03-17T18:50:39.754Z,3.43
2023-03-17T18:53:07.901Z,2.80
2023-03-17T18:55:36.063Z,3.10
2023-03-17T18:58:05.560Z,2.93
2023-03-17T19:00:33.874Z,3.20
2023-03-17T19:03:01.921Z,2.73
2023-03-17T19:05:29.995Z,3.50
2023-03-17T19:07:58.131Z,4.20
2023-03-17T19:10:26.146Z,4.33
2023-03-17T19:12:54.817Z,4.50
2023-03-17T19:15:24.287Z,4.00
2023-03-17T19:17:52.250Z,3.80
2023-03-17T19:20:21.250Z,3.57
2023-03-17T19:22:49.207Z,3.80
2023-03-17T19:25:17.901Z,4.40
2023-03-17T19:27:45.864Z,4.07
2023-03-17T19:30:15.118Z,4.27
2023-03-17T19:32:44.513Z,3.63
2023-03-17T19:35:12.698Z,3.70
2023-03-17T19:37:40.979Z,4.10
2023-03-17T19:40:11.293Z,3.80
2023-03-17T19:42:39.256Z,3.93
2023-03-17T19:45:08.412Z,3.67
2023-03-17T19:47:36.374Z,3.87
2023-03-17T19:50:07.406Z,4.20
2023-03-17T19:52:35.459Z,4.47
2023-03-17T19:55:05.452Z,4.57
2023-03-17T19:57:35.460Z,4.53
2023-03-17T20:00:03.636Z,3.93
2023-03-17T20:02:31.653Z,4.97
2023-03-17T20:04:59.686Z,4.33
2023-03-17T20:07:29.176Z,4.90
2023-03-17T20:09:57.161Z,4.40
2023-03-17T20:12:26.593Z,4.83
2023-03-17T20:14:54.582Z,4.37
2023-03-17T20:17:22.673Z,4.23
2023-03-17T20:19:50.661Z,4.13
2023-03-17T20:22:18.672Z,4.40
2023-03-17T20:24:48.044Z,4.50
2023-03-17T20:27:16.038Z,3.63
2023-03-17T20:29:44.646Z,3.93
2023-03-17T20:32:14.863Z,4.40
2023-03-17T20:34:43.633Z,4.60
2023-03-17T20:37:14.081Z,3.90
2023-03-17T20:39:42.320Z,3.90
2023-03-17T20:42:14.523Z,4.30
2023-03-17T20:44:42.914Z,3.83
2023-03-17T20:47:11.348Z,4.40
2023-03-17T20:49:39.379Z,4.63
2023-03-17T20:52:11.896Z,4.63
2023-03-17T20:54:40.407Z,3.80
2023-03-17T20:57:12.267Z,3.90
2023-03-17T20:59:40.210Z,4.57
2023-03-17T21:02:14.337Z,4.13
2023-03-17T21:04:46.564Z,4.27
2023-03-17T21:07:15.812Z,4.37
2023-03-17T21:09:44.392Z,4.23
2023-03-17T21:12:16.074Z,4.20
2023-03-17T21:14:48.048Z,4.33
2023-03-17T21:17:18.004Z,4.27
2023-03-17T21:19:46.345Z,4.17
2023-03-17T21:22:14.380Z,4.47
2023-03-17T21:24:42.361Z,3.90
2023-03-17T21:27:11.976Z,4.00
2023-03-17T21:29:41.470Z,3.97
2023-03-17T21:32:09.454Z,3.80
2023-03-17T21:34:38.001Z,4.17
2023-03-17T21:37:06.426Z,3.30
2023-03-17T21:39:36.150Z,3.13
2023-03-17T21:42:05.242Z,3.97
2023-03-17T21:44:33.386Z,3.47
2023-03-17T21:47:03.491Z,3.67
2023-03-17T21:49:31.772Z,3.50
2023-03-17T21:52:02.690Z,3.73
2023-03-17T21:54:31.751Z,3.73
2023-03-17T21:56:59.840Z,3.67
2023-03-17T21:59:30.814Z,4.27
2023-03-17T22:01:59.588Z,4.33
2023-03-17T22:04:29.292Z,4.10
2023-03-17T22:06:58.829Z,4.03
2023-03-17T22:09:26.887Z,4.30
2023-03-17T22:11:55.054Z,4.60
2023-03-17T22:14:23.111Z,4.20
2023-03-17T22:16:51.213Z,3.83
2023-03-17T22:19:21.242Z,3.87
2023-03-17T22:21:51.698Z,3.93
2023-03-17T22:24:19.946Z,3.90
2023-03-17T22:26:47.930Z,3.37
2023-03-17T22:29:16.137Z,3.70
2023-03-17T22:31:44.408Z,3.47
2023-03-17T22:34:12.392Z,3.73
2023-03-17T22:36:41.155Z,3.50
2023-03-17T22:39:10.706Z,3.47
2023-03-17T22:41:39.462Z,3.50
2023-03-17T22:44:09.274Z,3.50
2023-03-17T22:46:38.685Z,3.53
2023-03-17T22:49:07.858Z,3.47
2023-03-17T22:51:36.783Z,3.27
2023-03-17T22:54:05.578Z,3.10
2023-03-17T22:56:35.180Z,3.13
2023-03-17T22:59:03.168Z,3.17
2023-03-17T23:01:31.721Z,2.93
2023-03-17T23:03:59.870Z,3.37
2023-03-17T23:06:28.031Z,2.90
2023-03-17T23:08:56.072Z,3.57
2023-03-17T23:11:25.945Z,3.30
2023-03-17T23:13:55.806Z,2.90
2023-03-17T23:16:24.039Z,3.13
2023-03-17T23:18:52.946Z,3.13
2023-03-17T23:21:23.929Z,2.83
2023-03-17T23:23:51.984Z,2.80
2023-03-17T23:26:20.374Z,3.23
2023-03-17T23:28:48.452Z,2.63
2023-03-17T23:31:19.356Z,2.93
2023-03-17T23:33:48.389Z,3.03
2023-03-17T23:36:17.181Z,2.87
2023-03-17T23:38:45.541Z,2.97
2023-03-17T23:41:14.458Z,2.77
2023-03-17T23:43:43.970Z,2.70
2023-03-17T23:46:13.871Z,2.43
2023-03-17T23:48:43.593Z,2.97
2023-03-17T23:51:12.805Z,2.87
2023-03-17T23:53:41.896Z,3.30
2023-03-17T23:56:11.365Z,2.40
2023-03-17T23:58:39.494Z,2.80
